Weather at G 712 Airport

Public forecast

Using degrees Celsius for public forecast. Weather courtesy of forecast.io.

Closest aviation weather report (METAR) to G 712 Airport

Report is more than 6 hours old.

Closest report is Gwangju Airport, 18.8 nm (34.8 km) SE. Retrieved 2020/09/17 16:00 UTC (1 month ago):

RKJJ 171600Z 00000KT 4800 -RA BR SCT015 OVC030 19/19 Q1012 RMK CIG030 SLP125 8/7// 9/8// WR24

Closest aviation forecast (TAF) to G 712 Airport

Forecast is more than 12 hours old.

Closest forecast is Gwangju Airport, 18.8 nm (34.8 km) SE. Retrieved 2020/09/17 12:00 UTC (1 month ago):

TAF RKJJ 171100Z 1712/1818 15006KT 8000 -RA SCT030 OVC100 TN18/1721Z TX23/1806Z BECMG 1717/1718 21006KT 4800 -RA BR BKN015 OVC030 BECMG 1723/1724 24006KT 9999 NSW BKN030 BKN100 BECMG 1803/1804 SCT030